createdAt,value
2019-04-16T00:00:17.897Z,80.10
2019-04-16T00:02:51.191Z,80.70
2019-04-16T00:05:27.435Z,81.50
2019-04-16T00:07:58.708Z,81.80
2019-04-16T00:10:31.838Z,81.90
2019-04-16T00:13:04.782Z,82.60
2019-04-16T00:15:33.634Z,83.00
2019-04-16T00:18:02.509Z,83.10
2019-04-16T00:20:36.882Z,82.70
2019-04-16T00:23:11.360Z,82.30
2019-04-16T00:25:40.334Z,82.50
2019-04-16T00:28:09.190Z,82.30
2019-04-16T00:30:37.993Z,83.00
2019-04-16T00:33:07.584Z,83.10
2019-04-16T00:35:37.222Z,83.10
2019-04-16T00:38:07.762Z,83.90
2019-04-16T00:40:36.693Z,84.00
2019-04-16T00:43:05.865Z,84.60
2019-04-16T00:45:34.782Z,84.60
2019-04-16T00:48:03.990Z,85.10
2019-04-16T00:50:32.836Z,85.10
2019-04-16T00:53:07.810Z,85.10
2019-04-16T00:55:34.068Z,85.90
2019-04-16T00:58:02.957Z,86.30
2019-04-16T01:00:31.830Z,86.40
2019-04-16T01:03:01.639Z,86.00
2019-04-16T01:05:35.080Z,86.70
2019-04-16T01:08:01.150Z,86.90
2019-04-16T01:10:29.978Z,87.60
2019-04-16T01:12:58.760Z,87.30
2019-04-16T01:15:29.181Z,87.90
2019-04-16T01:17:57.828Z,88.30
2019-04-16T01:20:26.705Z,87.60
2019-04-16T01:22:55.510Z,87.50
2019-04-16T01:25:24.306Z,87.10
2019-04-16T01:28:01.155Z,86.80
2019-04-16T01:30:43.468Z,87.90
2019-04-16T01:33:14.680Z,87.70
2019-04-16T01:35:51.722Z,88.00
2019-04-16T01:38:27.622Z,88.80
2019-04-16T01:40:55.523Z,89.20
2019-04-16T01:43:25.784Z,89.60
2019-04-16T01:45:54.582Z,90.00
2019-04-16T01:48:23.388Z,89.70
2019-04-16T01:50:52.249Z,89.90
2019-04-16T01:53:21.748Z,89.90
2019-04-16T01:55:50.553Z,90.00
2019-04-16T01:58:19.298Z,90.20
2019-04-16T02:00:48.060Z,90.40
2019-04-16T02:03:17.760Z,90.40
2019-04-16T02:05:47.314Z,90.30
2019-04-16T02:08:16.167Z,90.30
2019-04-16T02:10:44.969Z,90.10
2019-04-16T02:13:14.997Z,90.30
2019-04-16T02:15:44.443Z,90.20
2019-04-16T02:18:12.941Z,90.40
2019-04-16T02:20:41.720Z,90.40
2019-04-16T02:23:10.524Z,90.40
2019-04-16T02:25:39.406Z,90.50
2019-04-16T02:28:08.183Z,90.30
2019-04-16T02:30:39.013Z,90.50
2019-04-16T02:33:07.770Z,90.70
2019-04-16T02:35:36.692Z,90.50
2019-04-16T02:38:10.501Z,90.70
2019-04-16T02:40:35.796Z,90.60
2019-04-16T02:43:06.993Z,90.60
2019-04-16T02:45:35.151Z,90.80
2019-04-16T02:48:03.944Z,90.30
2019-04-16T02:50:43.240Z,90.10
2019-04-16T02:53:29.790Z,90.30
2019-04-16T02:56:18.987Z,90.40
2019-04-16T02:58:48.422Z,90.40
2019-04-16T03:01:37.451Z,91.00
2019-04-16T03:04:08.218Z,91.00
2019-04-16T03:06:37.203Z,91.10
2019-04-16T03:09:09.863Z,91.20
2019-04-16T03:11:40.768Z,91.10
2019-04-16T03:14:09.669Z,90.90
2019-04-16T03:16:40.207Z,90.80
2019-04-16T03:19:26.824Z,91.00
2019-04-16T03:21:55.911Z,91.20
2019-04-16T03:24:26.113Z,90.90
2019-04-16T03:26:54.997Z,90.90
2019-04-16T03:29:23.852Z,91.10
2019-04-16T03:31:57.646Z,91.20
2019-04-16T03:34:23.386Z,91.20
2019-04-16T03:36:52.451Z,91.00
2019-04-16T03:39:21.223Z,91.10
2019-04-16T03:41:49.716Z,91.30
2019-04-16T03:44:18.595Z,91.60
2019-04-16T03:46:47.743Z,91.70
2019-04-16T03:49:16.648Z,91.70
2019-04-16T03:51:45.511Z,91.40
2019-04-16T03:54:14.289Z,91.50
2019-04-16T03:56:42.774Z,91.60
2019-04-16T03:59:12.153Z,92.00
2019-04-16T04:01:45.556Z,92.10
2019-04-16T04:04:12.019Z,91.60
2019-04-16T04:06:40.805Z,91.50
2019-04-16T04:09:09.599Z,91.30
2019-04-16T04:11:40.887Z,91.40
2019-04-16T04:14:08.917Z,91.60
2019-04-16T04:16:37.742Z,91.70
2019-04-16T04:19:06.554Z,91.90
2019-04-16T04:21:35.284Z,91.80
2019-04-16T04:24:04.253Z,92.00
2019-04-16T04:26:32.832Z,92.00
2019-04-16T04:29:01.350Z,92.10
2019-04-16T04:31:32.444Z,92.20
2019-04-16T04:34:00.389Z,92.20
2019-04-16T04:36:29.229Z,92.10
2019-04-16T04:38:57.754Z,92.00
2019-04-16T04:41:26.553Z,92.10
2019-04-16T04:44:10.738Z,92.00
2019-04-16T04:46:51.054Z,91.90
2019-04-16T04:49:22.064Z,92.30
2019-04-16T04:52:49.522Z,92.30
2019-04-16T04:54:33.647Z,92.00
2019-04-16T04:57:03.871Z,91.90
2019-04-16T04:59:36.890Z,91.90
2019-04-16T05:14:03.200Z,91.50
2019-04-16T05:16:27.982Z,91.10
2019-04-16T05:18:56.885Z,90.80
2019-04-16T05:21:25.916Z,91.00
2019-04-16T05:23:57.410Z,90.90
2019-04-16T05:26:26.605Z,91.00
2019-04-16T05:29:28.247Z,91.00
2019-04-16T05:34:17.735Z,90.90
2019-04-16T05:35:12.100Z,90.80
2019-04-16T05:37:41.040Z,91.10
2019-04-16T05:40:10.898Z,91.10
2019-04-16T05:43:41.958Z,91.20
2019-04-16T05:46:26.129Z,85.30
2019-04-16T05:48:54.918Z,69.00
2019-04-16T05:51:23.941Z,55.30
2019-04-16T05:54:03.082Z,50.00
2019-04-16T05:56:33.456Z,46.50
2019-04-16T05:59:02.563Z,43.10
2019-04-16T06:01:33.596Z,40.90
2019-04-16T06:04:05.480Z,39.40
2019-04-16T06:06:49.254Z,38.40
2019-04-16T06:09:18.115Z,36.70
2019-04-16T06:11:47.006Z,33.30
2019-04-16T06:14:25.520Z,32.50
2019-04-16T06:17:10.637Z,32.30
2019-04-16T06:19:46.829Z,31.90
2019-04-16T06:25:40.948Z,32.20
2019-04-16T06:28:29.100Z,32.20
2019-04-16T06:31:14.077Z,32.30
2019-04-16T06:34:16.072Z,33.00
2019-04-16T06:36:31.054Z,33.10
2019-04-16T06:39:16.427Z,31.80
2019-04-16T06:41:48.568Z,33.30
2019-04-16T06:44:19.184Z,32.20
2019-04-16T06:47:10.831Z,32.50
2019-04-16T06:49:50.968Z,33.20
2019-04-16T06:52:37.875Z,32.80
2019-04-16T06:55:11.975Z,34.10
2019-04-16T06:57:44.716Z,31.80
2019-04-16T07:00:15.190Z,33.20
2019-04-16T07:06:37.382Z,34.50
2019-04-16T07:15:13.401Z,34.30
2019-04-16T07:17:52.805Z,35.20
2019-04-16T07:20:21.773Z,33.70
2019-04-16T07:22:52.724Z,34.50
2019-04-16T07:29:03.622Z,35.20
2019-04-16T07:31:52.312Z,36.40
2019-04-16T07:34:32.313Z,36.60
2019-04-16T07:37:05.284Z,34.10
2019-04-16T07:39:51.822Z,35.40
2019-04-16T07:42:22.455Z,36.20
2019-04-16T07:45:13.065Z,38.00
2019-04-16T07:54:12.716Z,38.50
2019-04-16T07:56:42.867Z,41.40
2019-04-16T07:59:11.561Z,42.70
2019-04-16T08:01:40.093Z,42.60
2019-04-16T08:04:08.784Z,42.50
2019-04-16T08:06:37.225Z,42.80
2019-04-16T08:09:08.112Z,45.90
2019-04-16T08:11:36.761Z,44.40
2019-04-16T08:14:08.936Z,46.70
2019-04-16T08:16:46.545Z,44.40
2019-04-16T08:19:06.561Z,44.60
2019-04-16T08:21:35.415Z,44.90
2019-04-16T08:24:09.201Z,43.50
2019-04-16T08:26:37.793Z,44.20
2019-04-16T08:29:06.685Z,43.20
2019-04-16T08:31:37.169Z,46.70
2019-04-16T08:34:05.951Z,43.40
2019-04-16T08:36:35.138Z,43.70
2019-04-16T08:39:06.473Z,42.30
2019-04-16T08:41:35.944Z,45.30
2019-04-16T08:44:04.859Z,43.50
2019-04-16T08:46:33.416Z,44.70
2019-04-16T08:49:02.585Z,43.70
2019-04-16T08:51:34.359Z,43.60
2019-04-16T08:54:01.401Z,45.60
2019-04-16T08:56:30.278Z,46.10
2019-04-16T08:59:01.314Z,45.60
2019-04-16T09:01:31.340Z,45.20
2019-04-16T09:04:02.727Z,45.30
2019-04-16T09:06:30.415Z,45.20
2019-04-16T09:09:12.408Z,42.10
2019-04-16T09:11:35.344Z,44.00
2019-04-16T09:14:06.183Z,42.70
2019-04-16T09:16:39.442Z,43.10
2019-04-16T09:19:09.965Z,43.50
2019-04-16T09:21:43.299Z,44.30
2019-04-16T09:24:27.203Z,42.00
2019-04-16T09:27:15.292Z,43.20
2019-04-16T09:29:54.241Z,43.30
2019-04-16T09:32:28.197Z,45.40
2019-04-16T09:35:18.414Z,44.60
2019-04-16T09:38:02.687Z,43.40
2019-04-16T09:40:35.823Z,44.70
2019-04-16T09:43:16.718Z,44.50
2019-04-16T09:45:37.289Z,45.10
2019-04-16T09:48:06.791Z,43.70
2019-04-16T09:50:35.348Z,44.30
2019-04-16T09:53:04.180Z,44.10
2019-04-16T09:55:33.043Z,41.70
2019-04-16T09:58:06.240Z,45.20
2019-04-16T10:00:38.190Z,43.10
2019-04-16T10:03:11.024Z,44.50
2019-04-16T10:05:39.866Z,41.40
2019-04-16T10:08:09.639Z,42.70
2019-04-16T10:10:38.689Z,46.10
2019-04-16T10:13:07.690Z,44.30
2019-04-16T10:15:36.658Z,43.50
2019-04-16T10:18:05.610Z,43.20
2019-04-16T10:20:34.407Z,43.00
2019-04-16T10:23:04.917Z,44.20
2019-04-16T10:25:33.889Z,44.50
2019-04-16T10:28:04.954Z,43.10
2019-04-16T10:30:36.271Z,42.30
2019-04-16T10:33:05.275Z,41.40
2019-04-16T10:35:34.241Z,43.90
2019-04-16T10:38:04.843Z,41.50
2019-04-16T10:40:35.151Z,41.30
2019-04-16T10:43:05.857Z,42.50
2019-04-16T10:45:42.149Z,39.40
2019-04-16T10:48:48.042Z,40.20
2019-04-16T11:07:11.216Z,42.60
2019-04-16T11:13:24.683Z,42.90
2019-04-16T11:19:32.198Z,37.90
2019-04-16T11:22:04.108Z,41.20
2019-04-16T11:24:31.449Z,41.20
2019-04-16T11:26:59.878Z,40.50
2019-04-16T11:29:28.574Z,41.10
2019-04-16T11:31:57.442Z,39.00
2019-04-16T11:34:26.205Z,37.90
2019-04-16T11:36:58.191Z,41.90
2019-04-16T11:39:25.326Z,39.40
2019-04-16T11:41:53.832Z,39.90
2019-04-16T11:44:22.560Z,38.90
2019-04-16T11:46:51.380Z,39.10
2019-04-16T11:49:21.382Z,42.20
2019-04-16T11:51:50.179Z,37.70
2019-04-16T11:54:18.740Z,39.00
2019-04-16T11:56:47.176Z,36.90
2019-04-16T11:59:15.857Z,39.40
2019-04-16T12:01:48.704Z,39.00
2019-04-16T12:04:19.074Z,39.20
2019-04-16T12:06:49.183Z,37.50
2019-04-16T12:09:25.146Z,37.00
2019-04-16T12:11:58.267Z,36.10
2019-04-16T12:14:46.736Z,37.40
2019-04-16T12:17:17.069Z,40.10
2019-04-16T12:19:47.575Z,37.00
2019-04-16T12:22:26.979Z,37.30
2019-04-16T12:25:03.174Z,38.70
2019-04-16T12:27:36.522Z,40.30
2019-04-16T12:30:12.865Z,39.30
2019-04-16T12:32:45.863Z,38.90
2019-04-16T12:35:34.739Z,39.00
2019-04-16T12:38:09.180Z,38.10
2019-04-16T12:40:42.338Z,36.20
2019-04-16T12:43:15.751Z,36.90
2019-04-16T12:46:02.528Z,38.80
2019-04-16T12:48:50.572Z,37.10
2019-04-16T12:51:21.016Z,37.80
2019-04-16T12:53:54.238Z,36.80
2019-04-16T12:56:41.274Z,37.30
2019-04-16T12:59:11.732Z,36.00
2019-04-16T13:01:44.753Z,35.70
2019-04-16T13:04:14.834Z,36.80
2019-04-16T13:06:44.887Z,37.10
2019-04-16T13:09:15.047Z,36.00
2019-04-16T13:11:45.585Z,36.20
2019-04-16T13:14:31.679Z,36.10
2019-04-16T13:17:02.014Z,35.60
2019-04-16T13:19:32.359Z,36.60
2019-04-16T13:22:01.202Z,37.00
2019-04-16T13:24:33.966Z,36.40
2019-04-16T13:27:10.000Z,36.80
2019-04-16T13:29:38.679Z,35.40
2019-04-16T13:32:07.548Z,37.10
2019-04-16T13:34:36.337Z,35.90
2019-04-16T13:37:05.194Z,34.60
2019-04-16T13:39:52.219Z,33.50
2019-04-16T13:42:20.946Z,36.10
2019-04-16T13:44:51.383Z,34.30
2019-04-16T13:47:20.104Z,34.20
2019-04-16T13:50:03.433Z,35.70
2019-04-16T13:52:32.281Z,33.70
2019-04-16T13:55:10.110Z,36.60
2019-04-16T13:57:43.323Z,35.80
2019-04-16T14:00:28.769Z,34.90
2019-04-16T14:02:59.123Z,37.50
2019-04-16T14:05:27.812Z,35.40
2019-04-16T14:07:56.504Z,36.50
2019-04-16T14:10:25.207Z,35.10
2019-04-16T14:12:53.624Z,35.80
2019-04-16T14:15:31.838Z,36.10
2019-04-16T14:17:59.106Z,35.70
2019-04-16T14:20:24.678Z,35.20
2019-04-16T14:22:54.288Z,35.90
2019-04-16T14:25:24.968Z,36.50
2019-04-16T14:27:55.607Z,35.30
2019-04-16T14:30:25.903Z,35.00
2019-04-16T14:32:54.723Z,34.50
2019-04-16T14:35:33.424Z,37.10
2019-04-16T14:37:58.160Z,34.10
2019-04-16T14:40:27.044Z,34.80
2019-04-16T14:42:57.712Z,37.00
2019-04-16T14:45:28.398Z,33.50
2019-04-16T14:47:57.758Z,36.20
2019-04-16T14:50:26.659Z,35.00
2019-04-16T14:52:55.243Z,35.00
2019-04-16T14:55:42.239Z,35.00
2019-04-16T14:58:16.181Z,32.70
2019-04-16T15:00:54.412Z,33.70
2019-04-16T15:03:27.265Z,34.20
2019-04-16T15:06:03.860Z,33.60
2019-04-16T15:08:49.142Z,33.70
2019-04-16T15:11:19.634Z,34.20
2019-04-16T15:13:50.050Z,34.20
2019-04-16T15:16:22.160Z,34.70
2019-04-16T15:19:10.113Z,34.10
2019-04-16T15:21:56.060Z,33.80
2019-04-16T15:24:27.584Z,35.70
2019-04-16T15:26:58.048Z,35.00
2019-04-16T15:29:31.219Z,35.30
2019-04-16T15:32:05.919Z,34.80
2019-04-16T15:34:41.941Z,37.50
2019-04-16T15:37:13.681Z,36.30
2019-04-16T15:39:49.844Z,37.40
2019-04-16T15:42:20.188Z,36.90
2019-04-16T15:44:56.163Z,39.00
2019-04-16T15:47:31.789Z,40.20
2019-04-16T15:50:00.464Z,39.30
2019-04-16T15:52:46.500Z,40.50
2019-04-16T15:55:19.808Z,40.90
2019-04-16T15:57:53.076Z,40.70
2019-04-16T16:00:32.487Z,41.00
2019-04-16T16:06:25.244Z,40.10
2019-04-16T16:09:03.786Z,40.00
2019-04-16T16:11:33.599Z,41.40
2019-04-16T16:14:02.481Z,42.80
2019-04-16T16:16:41.735Z,43.40
2019-04-16T16:19:01.787Z,47.60
2019-04-16T16:21:30.327Z,47.00
2019-04-16T16:23:59.137Z,46.00
2019-04-16T16:26:27.961Z,46.30
2019-04-16T16:28:56.725Z,47.30
2019-04-16T16:31:25.474Z,48.20
2019-04-16T16:33:54.084Z,48.70
2019-04-16T16:36:22.811Z,49.10
2019-04-16T16:38:51.497Z,49.60
2019-04-16T16:41:20.303Z,50.90
2019-04-16T16:43:49.109Z,52.00
2019-04-16T16:46:21.972Z,52.90
2019-04-16T16:48:52.627Z,54.60
2019-04-16T16:51:23.071Z,56.10
2019-04-16T16:54:01.890Z,57.30
2019-04-16T16:56:46.948Z,57.80
2019-04-16T16:59:35.569Z,57.70
2019-04-16T17:02:20.861Z,58.60
2019-04-16T17:04:52.973Z,58.50
2019-04-16T17:07:21.859Z,60.30
2019-04-16T17:09:50.490Z,61.20
2019-04-16T17:12:19.115Z,61.70
2019-04-16T17:14:48.003Z,61.70
2019-04-16T17:17:16.965Z,62.60
2019-04-16T17:19:50.496Z,63.20
2019-04-16T17:22:18.177Z,64.10
2019-04-16T17:24:49.704Z,59.00
2019-04-16T17:27:18.696Z,57.00
2019-04-16T17:29:49.729Z,57.80
2019-04-16T17:32:18.102Z,58.00
2019-04-16T17:34:46.929Z,58.60
2019-04-16T17:37:15.830Z,58.60
2019-04-16T17:39:49.000Z,59.10
2019-04-16T17:42:21.929Z,59.40
2019-04-16T17:45:10.168Z,59.70
2019-04-16T17:47:57.424Z,59.60
2019-04-16T17:50:39.299Z,59.60
2019-04-16T17:53:24.635Z,60.30
2019-04-16T17:56:06.756Z,60.60
2019-04-16T17:58:37.189Z,60.50
2019-04-16T18:01:16.541Z,60.70
2019-04-16T18:04:01.857Z,61.40
2019-04-16T18:06:34.811Z,61.40
2019-04-16T18:09:18.710Z,61.90
2019-04-16T18:12:03.696Z,62.60
2019-04-16T18:14:50.350Z,62.90
2019-04-16T18:17:21.033Z,63.50
2019-04-16T18:19:54.609Z,64.00
2019-04-16T18:22:41.925Z,64.60
2019-04-16T18:25:23.375Z,64.60
2019-04-16T18:28:04.248Z,65.00
2019-04-16T18:30:41.034Z,65.30
2019-04-16T18:33:23.233Z,65.70
2019-04-16T18:35:53.666Z,66.60
2019-04-16T18:38:36.129Z,67.30
2019-04-16T18:41:09.346Z,67.60
2019-04-16T18:43:39.791Z,68.50
2019-04-16T18:46:30.081Z,69.00
2019-04-16T18:48:59.737Z,69.50
2019-04-16T18:51:32.935Z,70.20
2019-04-16T18:53:59.082Z,70.00
2019-04-16T18:56:27.958Z,70.40
2019-04-16T18:58:56.801Z,71.20
2019-04-16T19:01:29.682Z,70.80
2019-04-16T19:03:57.953Z,70.50
2019-04-16T19:06:26.552Z,69.70
2019-04-16T19:08:55.537Z,70.10
2019-04-16T19:11:24.377Z,70.20
2019-04-16T19:13:53.690Z,70.60
2019-04-16T19:16:22.522Z,70.90
2019-04-16T19:18:51.335Z,71.70
2019-04-16T19:21:19.889Z,70.80
2019-04-16T19:23:48.727Z,71.50
2019-04-16T19:26:17.274Z,73.50
2019-04-16T19:28:46.599Z,74.10
2019-04-16T19:31:15.466Z,75.00
2019-04-16T19:33:44.098Z,74.80
2019-04-16T19:36:13.110Z,75.60
2019-04-16T19:38:41.970Z,76.30
2019-04-16T19:41:10.854Z,77.00
2019-04-16T19:43:39.660Z,79.80
2019-04-16T19:46:08.408Z,81.40
2019-04-16T19:48:37.142Z,82.30
2019-04-16T19:51:07.229Z,82.00
2019-04-16T19:53:36.337Z,81.30
2019-04-16T19:56:05.161Z,81.70
2019-04-16T19:58:33.600Z,81.70
2019-04-16T20:01:02.171Z,80.60
2019-04-16T20:03:31.342Z,80.20
2019-04-16T20:06:00.139Z,79.60
2019-04-16T20:08:34.372Z,81.30
2019-04-16T20:10:59.073Z,80.70
2019-04-16T20:13:28.944Z,80.30
2019-04-16T20:15:59.987Z,80.50
2019-04-16T20:18:49.978Z,80.70
2019-04-16T20:21:05.022Z,81.30
2019-04-16T20:23:33.814Z,81.20
2019-04-16T20:26:02.677Z,81.00
2019-04-16T20:28:31.483Z,81.80
2019-04-16T20:31:03.237Z,82.20
2019-04-16T20:33:30.683Z,83.20
2019-04-16T20:35:59.429Z,84.80
2019-04-16T20:38:29.375Z,84.30
2019-04-16T20:40:58.611Z,83.80
2019-04-16T20:43:27.368Z,83.50
2019-04-16T20:45:56.100Z,83.90
2019-04-16T20:48:24.892Z,84.00
2019-04-16T20:50:58.173Z,84.10
2019-04-16T20:53:24.117Z,84.10
2019-04-16T20:55:52.846Z,84.10
2019-04-16T20:58:21.366Z,84.30
2019-04-16T21:00:51.729Z,84.20
2019-04-16T21:03:22.740Z,84.10
2019-04-16T21:05:57.887Z,84.30
2019-04-16T21:08:24.156Z,84.50
2019-04-16T21:10:51.548Z,84.90
2019-04-16T21:13:20.307Z,84.80
2019-04-16T21:15:49.038Z,84.30
2019-04-16T21:18:17.768Z,84.30
2019-04-16T21:20:50.807Z,85.40
2019-04-16T21:23:17.023Z,85.50
2019-04-16T21:25:45.926Z,85.90
2019-04-16T21:28:23.080Z,86.90
2019-04-16T21:30:53.452Z,86.60
2019-04-16T21:33:24.016Z,86.50
2019-04-16T21:35:54.167Z,86.00
2019-04-16T21:38:27.418Z,85.60
2019-04-16T21:40:57.288Z,85.80
2019-04-16T21:43:26.571Z,85.60
2019-04-16T21:45:55.384Z,85.50
2019-04-16T21:48:27.092Z,85.90
2019-04-16T21:50:55.393Z,86.10
2019-04-16T21:53:24.634Z,86.50
2019-04-16T21:55:54.373Z,86.80
2019-04-16T21:58:23.211Z,86.40
2019-04-16T22:00:54.153Z,86.00
2019-04-16T22:03:24.525Z,86.10
2019-04-16T22:05:53.392Z,86.60
2019-04-16T22:08:22.180Z,87.00
2019-04-16T22:10:50.944Z,87.00
2019-04-16T22:13:20.148Z,86.80
2019-04-16T22:15:48.689Z,87.30
2019-04-16T22:18:17.999Z,87.10
2019-04-16T22:20:46.791Z,87.00
2019-04-16T22:23:19.023Z,86.80
2019-04-16T22:25:45.965Z,87.20
2019-04-16T22:28:14.819Z,87.40
2019-04-16T22:30:43.603Z,87.80
2019-04-16T22:33:12.327Z,88.30
2019-04-16T22:35:42.058Z,88.70
2019-04-16T22:38:14.304Z,89.30
2019-04-16T22:40:45.372Z,89.60
2019-04-16T22:43:15.462Z,89.60
2019-04-16T22:45:52.082Z,89.50
2019-04-16T22:48:19.044Z,89.70
2019-04-16T22:50:47.838Z,90.00
2019-04-16T22:53:17.268Z,90.00
2019-04-16T22:55:46.698Z,89.60
2019-04-16T22:58:24.967Z,90.00
2019-04-16T23:00:55.698Z,90.10
2019-04-16T23:03:24.424Z,90.00
2019-04-16T23:05:53.253Z,89.80
2019-04-16T23:08:22.040Z,89.00
2019-04-16T23:10:52.066Z,90.00
2019-04-16T23:13:20.973Z,90.40
2019-04-16T23:15:49.805Z,90.20
2019-04-16T23:18:18.381Z,90.30
2019-04-16T23:20:47.167Z,90.50
2019-04-16T23:23:18.052Z,91.00
2019-04-16T23:25:46.095Z,90.90
2019-04-16T23:28:14.837Z,91.30
2019-04-16T23:30:43.601Z,90.80
2019-04-16T23:33:12.349Z,91.00
2019-04-16T23:35:44.313Z,91.20
2019-04-16T23:38:12.068Z,91.20
2019-04-16T23:40:43.922Z,91.10
2019-04-16T23:43:25.011Z,91.20
2019-04-16T23:46:11.589Z,91.50
2019-04-16T23:48:47.728Z,91.60
2019-04-16T23:51:22.266Z,91.50
2019-04-16T23:54:01.577Z,91.40
2019-04-16T23:56:34.652Z,91.50
2019-04-16T23:59:11.026Z,91.60
